| time (UTC) | temp F | wind direction | speed MPH | gust MPH | rain 1hr in | rain 24hr in | rain mn in | humidity % | barometer mb |
| 20260505035706 | 62 | 173 | 2.0 | 3.0 | 0.00 | 0.55 | 0.06 | 71 | 1011.4 |
| 20260505035547 | 62 | 173 | 2.0 | 3.0 | 0.00 | 0.55 | 0.06 | 71 | 1011.4 |
| 20260505035225 | 62 | 169 | 3.0 | 1.0 | 0.00 | 0.55 | 0.06 | 71 | 1011.4 |
| 20260505035048 | 62 | 169 | 3.0 | 1.0 | 0.00 | 0.55 | 0.06 | 71 | 1011.4 |
| 20260505034549 | 62 | 259 | 1.0 | 2.0 | 0.00 | 0.55 | 0.06 | 70 | 1011.4 |
| 20260505034046 | 62 | 204 | 3.0 | 2.0 | 0.00 | 0.55 | 0.06 | 69 | 1011.4 |
| 20260505033547 | 62 | 210 | 2.0 | 1.0 | 0.00 | 0.55 | 0.06 | 69 | 1011.4 |
| 20260505033048 | 62 | 231 | 2.0 | 3.0 | 0.00 | 0.55 | 0.06 | 68 | 1011.4 |
| 20260505032933 | 63 | 240 | 2.0 | 2.0 | 0.00 | 0.55 | 0.06 | 66 | 1011.6 |
| 20260505032545 | 63 | 217 | 0.0 | 3.0 | 0.00 | 0.55 | 0.06 | 68 | 1011.4 |
| 20260505032046 | 63 | 184 | 0.0 | 0.0 | 0.00 | 0.55 | 0.06 | 67 | 1011.5 |
| 20260505031547 | 63 | 194 | 3.0 | 2.0 | 0.00 | 0.55 | 0.06 | 67 | 1011.5 |
| 20260505031120 | 63 | 201 | 1.0 | 3.0 | 0.00 | 0.55 | 0.06 | 67 | 1011.6 |
| 20260505031043 | 63 | 201 | 1.0 | 3.0 | 0.00 | 0.55 | 0.06 | 67 | 1011.6 |
| 20260505030544 | 63 | 150 | 1.0 | 0.0 | 0.00 | 0.55 | 0.06 | 67 | 1011.6 |
| 20260505030045 | 63 | 240 | 2.0 | 2.0 | 0.00 | 0.55 | 0.06 | 66 | 1011.6 |
| 20260505025542 | 63 | 193 | 1.0 | 0.0 | 0.00 | 0.55 | 0.06 | 66 | 1011.6 |
| 20260505025043 | 63 | 228 | 2.0 | 3.0 | 0.00 | 0.55 | 0.06 | 66 | 1011.6 |
| 20260505024544 | 63 | 200 | 2.0 | 1.0 | 0.00 | 0.55 | 0.06 | 66 | 1011.7 |
| 20260505024041 | 63 | 195 | 2.0 | 0.0 | 0.00 | 0.55 | 0.06 | 66 | 1011.7 |
| 20260505023542 | 63 | 177 | 0.0 | 0.0 | 0.00 | 0.55 | 0.06 | 66 | 1011.7 |
| 20260505023043 | 63 | 173 | 1.0 | 0.0 | 0.00 | 0.55 | 0.06 | 65 | 1011.7 |
| 20260505022537 | 63 | 203 | 2.0 | 0.0 | 0.00 | 0.55 | 0.06 | 65 | 1011.7 |
| 20260505022529 | 63 | 191 | 3.0 | 1.0 | 0.00 | 0.55 | 0.06 | 65 | 1011.8 |
| 20260505022035 | 63 | 156 | 3.0 | 1.0 | 0.00 | 0.55 | 0.06 | 65 | 1011.7 |
| 20260505021537 | 63 | 195 | 3.0 | 4.0 | 0.00 | 0.55 | 0.06 | 65 | 1011.8 |
| 20260505021033 | 63 | 321 | 2.0 | 1.0 | 0.00 | 0.55 | 0.06 | 65 | 1011.8 |
| 20260505020534 | 63 | 200 | 2.0 | 1.0 | 0.00 | 0.55 | 0.06 | 65 | 1011.8 |
| 20260505020035 | 63 | 184 | 1.0 | 4.0 | 0.00 | 0.55 | 0.06 | 65 | 1011.8 |
| 20260505015532 | 63 | 191 | 3.0 | 1.0 | 0.00 | 0.55 | 0.06 | 65 | 1011.8 |
| 20260505015338 | 64 | 10 | 1.0 | 0.0 | 0.00 | 0.55 | 0.06 | 64 | 1011.8 |
| 20260505015033 | 63 | 198 | 2.0 | 2.0 | 0.00 | 0.55 | 0.06 | 65 | 1011.7 |
| 20260505014534 | 63 | 195 | 2.0 | 3.0 | 0.00 | 0.55 | 0.06 | 65 | 1011.7 |
| 20260505014031 | 64 | 211 | 2.0 | 4.0 | 0.00 | 0.55 | 0.06 | 64 | 1011.8 |
| 20260505013606 | 64 | 10 | 1.0 | 0.0 | 0.00 | 0.55 | 0.06 | 64 | 1011.8 |
| 20260505013532 | 64 | 10 | 1.0 | 0.0 | 0.00 | 0.55 | 0.06 | 64 | 1011.8 |
| 20260505013033 | 64 | 198 | 3.0 | 1.0 | 0.00 | 0.55 | 0.06 | 64 | 1011.8 |
| 20260505012721 | 64 | 200 | 1.0 | 2.0 | 0.00 | 0.55 | 0.06 | 64 | 1011.8 |
| 20260505012529 | 64 | 200 | 1.0 | 2.0 | 0.00 | 0.55 | 0.06 | 64 | 1011.8 |
| 20260505012125 | 64 | 222 | 3.0 | 0.0 | 0.00 | 0.55 | 0.06 | 64 | 1011.7 |
| 20260505012030 | 64 | 222 | 3.0 | 0.0 | 0.00 | 0.55 | 0.06 | 64 | 1011.7 |
| 20260505011531 | 64 | 160 | 1.0 | 1.0 | 0.00 | 0.55 | 0.06 | 64 | 1011.7 |
| 20260505011102 | 64 | 179 | 1.0 | 2.0 | 0.00 | 0.55 | 0.06 | 64 | 1011.6 |
| 20260505011028 | 64 | 179 | 1.0 | 2.0 | 0.00 | 0.55 | 0.06 | 64 | 1011.6 |
| 20260505010529 | 64 | 191 | 1.0 | 3.0 | 0.00 | 0.55 | 0.06 | 64 | 1011.6 |
| 20260505010029 | 64 | 233 | 2.0 | 1.0 | 0.00 | 0.55 | 0.06 | 64 | 1011.6 |
| 20260505005526 | 64 | 186 | 2.0 | 0.0 | 0.00 | 0.55 | 0.06 | 64 | 1011.5 |
| 20260505005108 | 64 | 212 | 1.0 | 0.0 | 0.00 | 0.55 | 0.06 | 64 | 1011.4 |
| 20260505005027 | 64 | 212 | 1.0 | 0.0 | 0.00 | 0.55 | 0.06 | 64 | 1011.4 |
| 20260505004935 | 64 | 210 | 3.0 | 4.0 | 0.00 | 0.55 | 0.06 | 63 | 1011.3 |
| 20260505004928 | 65 | 194 | 2.0 | 0.0 | 0.00 | 0.55 | 0.06 | 63 | 1011.3 |
| 20260505004528 | 64 | 228 | 4.0 | 4.0 | 0.00 | 0.55 | 0.06 | 63 | 1011.3 |
| 20260505004025 | 64 | 210 | 3.0 | 4.0 | 0.00 | 0.55 | 0.06 | 63 | 1011.3 |
| 20260505003611 | 65 | 194 | 2.0 | 0.0 | 0.00 | 0.55 | 0.06 | 63 | 1011.3 |
| 20260505003525 | 65 | 194 | 2.0 | 0.0 | 0.00 | 0.55 | 0.06 | 63 | 1011.3 |
| 20260505003153 | 65 | 197 | 3.0 | 0.0 | 0.00 | 0.55 | 0.06 | 63 | 1011.2 |
| 20260505003147 | 65 | 229 | 3.0 | 0.0 | 0.00 | 0.55 | 0.06 | 62 | 1011.2 |
| 20260505003026 | 65 | 197 | 3.0 | 0.0 | 0.00 | 0.55 | 0.06 | 63 | 1011.2 |
| 20260505002603 | 65 | 229 | 3.0 | 0.0 | 0.00 | 0.55 | 0.06 | 62 | 1011.2 |
| 20260505002522 | 65 | 229 | 3.0 | 0.0 | 0.00 | 0.55 | 0.06 | 62 | 1011.2 |
| 20260505002023 | 65 | 211 | 1.0 | 2.0 | 0.00 | 0.55 | 0.06 | 62 | 1011.2 |
| 20260505001737 | 66 | 193 | 3.0 | 0.0 | 0.00 | 0.55 | 0.06 | 58 | 1010.8 |
| 20260505001731 | 67 | 149 | 2.0 | 0.0 | 0.00 | 0.55 | 0.06 | 57 | 1010.8 |
| 20260505001603 | 65 | 276 | 1.0 | 4.0 | 0.00 | 0.55 | 0.06 | 61 | 1011.1 |
| 20260505001524 | 65 | 276 | 1.0 | 4.0 | 0.00 | 0.55 | 0.06 | 61 | 1011.1 |
| 20260505001210 | 65 | 229 | 2.0 | 3.0 | 0.00 | 0.55 | 0.06 | 61 | 1011.0 |
| 20260505001021 | 65 | 229 | 2.0 | 3.0 | 0.00 | 0.55 | 0.06 | 61 | 1011.0 |
| 20260505000725 | 66 | 211 | 0.0 | 1.0 | 0.00 | 0.55 | 0.06 | 60 | 1010.9 |
| 20260505000522 | 66 | 211 | 0.0 | 1.0 | 0.00 | 0.55 | 0.06 | 60 | 1010.9 |
| 20260505000022 | 66 | 208 | 2.0 | 4.0 | 0.00 | 0.55 | 0.06 | 59 | 1010.8 |
| 20260504235519 | 66 | 193 | 3.0 | 0.0 | 0.00 | 0.55 | 0.06 | 58 | 1010.8 |
| 20260504235020 | 67 | 149 | 2.0 | 0.0 | 0.00 | 0.55 | 0.06 | 57 | 1010.8 |
| 20260504234535 | 68 | 316 | 0.0 | 0.0 | 0.00 | 0.55 | 0.06 | 52 | 1010.5 |
| 20260504234521 | 67 | 177 | 0.0 | 0.0 | 0.00 | 0.55 | 0.06 | 56 | 1010.8 |
| 20260504234018 | 67 | 177 | 0.0 | 0.0 | 0.00 | 0.55 | 0.06 | 55 | 1010.7 |
| 20260504233555 | 67 | 186 | 2.0 | 0.0 | 0.00 | 0.55 | 0.06 | 55 | 1010.7 |
| 20260504233518 | 67 | 186 | 2.0 | 0.0 | 0.00 | 0.55 | 0.06 | 55 | 1010.7 |
| 20260504233059 | 68 | 281 | 1.0 | 2.0 | 0.00 | 0.55 | 0.06 | 54 | 1010.6 |
| 20260504233019 | 68 | 281 | 1.0 | 2.0 | 0.00 | 0.55 | 0.06 | 54 | 1010.6 |
| 20260504232516 | 68 | 160 | 0.0 | 0.0 | 0.00 | 0.55 | 0.06 | 53 | 1010.6 |
| 20260504232101 | 68 | 316 | 0.0 | 0.0 | 0.00 | 0.55 | 0.06 | 52 | 1010.5 |
| 20260504232017 | 68 | 316 | 0.0 | 0.0 | 0.00 | 0.55 | 0.06 | 52 | 1010.5 |
| 20260504231518 | 68 | 297 | 2.0 | 4.0 | 0.00 | 0.55 | 0.06 | 52 | 1010.5 |
| 20260504231328 | 70 | 256 | 3.0 | 3.0 | 0.00 | 0.55 | 0.06 | 51 | 1010.4 |
| 20260504231014 | 68 | 249 | 2.0 | 1.0 | 0.00 | 0.55 | 0.06 | 52 | 1010.5 |
| 20260504230515 | 69 | 239 | 3.0 | 0.0 | 0.00 | 0.55 | 0.06 | 51 | 1010.4 |
| 20260504230016 | 69 | 158 | 2.0 | 3.0 | 0.00 | 0.55 | 0.06 | 51 | 1010.4 |
| 20260504225513 | 69 | 262 | 1.0 | 5.0 | 0.00 | 0.55 | 0.06 | 50 | 1010.5 |
| 20260504225014 | 69 | 239 | 0.0 | 4.0 | 0.00 | 0.55 | 0.06 | 50 | 1010.4 |
| 20260504224514 | 70 | 256 | 3.0 | 3.0 | 0.00 | 0.55 | 0.06 | 51 | 1010.4 |
| 20260504224123 | 71 | 205 | 2.0 | 0.0 | 0.00 | 0.55 | 0.06 | 50 | 1010.4 |
| 20260504224011 | 70 | 163 | 0.0 | 2.0 | 0.00 | 0.55 | 0.06 | 51 | 1010.3 |
| 20260504223512 | 70 | 156 | 1.0 | 0.0 | 0.00 | 0.55 | 0.06 | 51 | 1010.3 |
| 20260504222508 | 70 | 153 | 2.0 | 0.0 | 0.00 | 0.55 | 0.06 | 51 | 1010.3 |
| 20260504222009 | 70 | 228 | 2.0 | 3.0 | 0.00 | 0.55 | 0.06 | 51 | 1010.3 |
| 20260504221510 | 70 | 124 | 4.0 | 1.0 | 0.00 | 0.55 | 0.06 | 50 | 1010.4 |
| 20260504221126 | 71 | 205 | 2.0 | 0.0 | 0.00 | 0.55 | 0.06 | 50 | 1010.4 |
| 20260504221007 | 71 | 205 | 2.0 | 0.0 | 0.00 | 0.55 | 0.06 | 50 | 1010.4 |
| 20260504220931 | 72 | 302 | 1.0 | 3.0 | 0.01 | 0.55 | 0.06 | 49 | 1010.3 |
| 20260504220926 | 72 | 170 | 1.0 | 0.0 | 0.01 | 0.55 | 0.06 | 48 | 1010.3 |
| 20260504220508 | 71 | 200 | 3.0 | 0.0 | 0.00 | 0.55 | 0.06 | 50 | 1010.4 |
| 20260504215505 | 71 | 162 | 4.0 | 4.0 | 0.00 | 0.55 | 0.06 | 49 | 1010.4 |
| 20260504215004 | 72 | 246 | 2.0 | 1.0 | 0.00 | 0.55 | 0.06 | 49 | 1010.4 |
| 20260504214503 | 72 | 302 | 1.0 | 3.0 | 0.01 | 0.55 | 0.06 | 49 | 1010.3 |
| 20260504213959 | 72 | 170 | 1.0 | 0.0 | 0.01 | 0.55 | 0.06 | 48 | 1010.3 |
| 20260504213738 | 72 | 212 | 4.0 | 4.0 | 0.01 | 0.55 | 0.06 | 47 | 1010.3 |
| 20260504213728 | 73 | 256 | 3.0 | 0.0 | 0.01 | 0.55 | 0.06 | 48 | 1010.3 |
| 20260504213500 | 72 | 225 | 4.0 | 5.0 | 0.01 | 0.55 | 0.06 | 47 | 1010.3 |
| 20260504213036 | 72 | 194 | 2.0 | 5.0 | 0.01 | 0.55 | 0.06 | 47 | 1010.3 |
| 20260504213001 | 72 | 194 | 2.0 | 5.0 | 0.01 | 0.55 | 0.06 | 47 | 1010.3 |
| 20260504212457 | 72 | 249 | 4.0 | 0.0 | 0.01 | 0.55 | 0.06 | 47 | 1010.4 |
| 20260504211958 | 72 | 212 | 4.0 | 4.0 | 0.01 | 0.55 | 0.06 | 47 | 1010.3 |
| 20260504211530 | 73 | 256 | 3.0 | 0.0 | 0.01 | 0.55 | 0.06 | 48 | 1010.3 |
| 20260504211458 | 73 | 256 | 3.0 | 0.0 | 0.01 | 0.55 | 0.06 | 48 | 1010.3 |
| 20260504211032 | 73 | 169 | 3.0 | 0.0 | 0.01 | 0.55 | 0.06 | 48 | 1010.3 |
| 20260504210955 | 73 | 169 | 3.0 | 0.0 | 0.01 | 0.55 | 0.06 | 48 | 1010.3 |
| 20260504210533 | 73 | 259 | 1.0 | 2.0 | 0.02 | 0.55 | 0.06 | 50 | 1010.2 |
| 20260504210524 | 73 | 139 | 2.0 | 2.0 | 0.02 | 0.55 | 0.06 | 51 | 1010.2 |
| 20260504210456 | 73 | 179 | 2.0 | 3.0 | 0.01 | 0.55 | 0.06 | 47 | 1010.3 |
| 20260504205956 | 73 | 174 | 4.0 | 3.0 | 0.01 | 0.55 | 0.06 | 47 | 1010.3 |
| 20260504205453 | 74 | 273 | 4.0 | 4.0 | 0.01 | 0.55 | 0.06 | 47 | 1010.3 |
| 20260504204953 | 74 | 179 | 2.0 | 0.0 | 0.01 | 0.55 | 0.06 | 50 | 1010.2 |
| 20260504204537 | 73 | 197 | 3.0 | 2.0 | 0.02 | 0.55 | 0.06 | 50 | 1010.2 |
| 20260504204454 | 73 | 197 | 3.0 | 2.0 | 0.02 | 0.55 | 0.06 | 50 | 1010.2 |
| 20260504203950 | 73 | 259 | 1.0 | 2.0 | 0.02 | 0.55 | 0.06 | 50 | 1010.2 |
| 20260504203451 | 73 | 139 | 2.0 | 2.0 | 0.02 | 0.55 | 0.06 | 51 | 1010.2 |
| 20260504203147 | 73 | 181 | 1.0 | 1.0 | 0.02 | 0.55 | 0.06 | 52 | 1010.3 |
| 20260504202952 | 74 | 274 | 1.0 | 2.0 | 0.02 | 0.55 | 0.06 | 52 | 1010.2 |
| 20260504202448 | 74 | 235 | 3.0 | 2.0 | 0.02 | 0.55 | 0.06 | 51 | 1010.1 |
| 20260504201949 | 73 | 153 | 2.0 | 0.0 | 0.02 | 0.55 | 0.06 | 51 | 1010.2 |
| 20260504201450 | 73 | 236 | 3.0 | 3.0 | 0.02 | 0.55 | 0.06 | 51 | 1010.1 |
| 20260504200942 | 73 | 167 | 3.0 | 1.0 | 0.02 | 0.55 | 0.06 | 52 | 1010.2 |
| 20260504200521 | 73 | 181 | 1.0 | 1.0 | 0.02 | 0.55 | 0.06 | 52 | 1010.3 |
| 20260504200442 | 73 | 181 | 1.0 | 1.0 | 0.02 | 0.55 | 0.06 | 52 | 1010.3 |
| 20260504200126 | 75 | 167 | 2.0 | 3.0 | 0.00 | 0.55 | 0.04 | 49 | 1010.4 |
| 20260504195943 | 73 | 118 | 0.0 | 0.0 | 0.02 | 0.55 | 0.06 | 51 | 1010.3 |
| 20260504195438 | 74 | 113 | 1.0 | 3.0 | 0.02 | 0.55 | 0.05 | 51 | 1010.4 |
| 20260504194939 | 74 | 218 | 2.0 | 0.0 | 0.00 | 0.55 | 0.05 | 51 | 1010.6 |
| 20260504194636 | 75 | 100 | 1.0 | 3.0 | 0.00 | 0.55 | 0.05 | 50 | 1010.6 |
| 20260504194440 | 75 | 100 | 1.0 | 3.0 | 0.00 | 0.55 | 0.05 | 50 | 1010.6 |
| 20260504194015 | 75 | 104 | 2.0 | 0.0 | 0.00 | 0.55 | 0.04 | 49 | 1010.4 |
| 20260504193936 | 75 | 104 | 2.0 | 0.0 | 0.00 | 0.55 | 0.04 | 49 | 1010.4 |
| 20260504193514 | 75 | 167 | 2.0 | 3.0 | 0.00 | 0.55 | 0.04 | 49 | 1010.4 |
| 20260504193436 | 75 | 167 | 2.0 | 3.0 | 0.00 | 0.55 | 0.04 | 49 | 1010.4 |
| 20260504192936 | 75 | 111 | 2.0 | 0.0 | 0.00 | 0.55 | 0.04 | 48 | 1010.6 |
| 20260504192928 | 77 | 263 | 2.0 | 3.0 | 0.00 | 0.55 | 0.03 | 40 | 1010.8 |
| 20260504192538 | 76 | 163 | 1.0 | 0.0 | 0.00 | 0.55 | 0.04 | 47 | 1010.5 |
| 20260504192506 | 76 | 163 | 1.0 | 0.0 | 0.00 | 0.55 | 0.04 | 47 | 1010.5 |
| 20260504192418 | 76 | 163 | 1.0 | 0.0 | 0.00 | 0.55 | 0.04 | 47 | 1010.5 |
| 20260504191450 | 77 | 259 | 0.0 | 6.0 | 0.00 | 0.55 | 0.04 | 45 | 1010.7 |
| 20260504191416 | 77 | 259 | 0.0 | 6.0 | 0.00 | 0.55 | 0.04 | 45 | 1010.7 |
| 20260504190415 | 77 | 263 | 2.0 | 3.0 | 0.00 | 0.55 | 0.03 | 40 | 1010.8 |
| 20260504185443 | 79 | 228 | 3.0 | 1.0 | 0.00 | 0.55 | 0.03 | 44 | 1010.9 |
| 20260504185411 | 79 | 228 | 3.0 | 1.0 | 0.00 | 0.55 | 0.03 | 44 | 1010.9 |
| 20260504184946 | 80 | 218 | 2.0 | 3.0 | 0.00 | 0.55 | 0.03 | 40 | 1011.0 |
| 20260504184911 | 80 | 218 | 2.0 | 3.0 | 0.00 | 0.55 | 0.03 | 40 | 1011.0 |
| 20260504184444 | 80 | 235 | 0.0 | 7.0 | 0.00 | 0.55 | 0.03 | 33 | 1011.1 |
| 20260504184411 | 80 | 235 | 0.0 | 7.0 | 0.00 | 0.55 | 0.03 | 33 | 1011.1 |
| 20260504183908 | 80 | 266 | 0.0 | 0.0 | 0.00 | 0.55 | 0.03 | 33 | 1011.1 |
| 20260504183409 | 80 | 176 | 2.0 | 0.0 | 0.00 | 0.55 | 0.03 | 33 | 1011.2 |
| 20260504182910 | 80 | 329 | 1.0 | 2.0 | 0.00 | 0.55 | 0.03 | 33 | 1011.2 |
| 20260504182529 | 80 | 158 | 0.0 | 3.0 | 0.00 | 0.55 | 0.03 | 33 | 1011.4 |
| 20260504182516 | 79 | 329 | 1.0 | 1.0 | 0.00 | 0.55 | 0.03 | 34 | 1011.5 |
| 20260504182440 | 80 | 194 | 0.0 | 0.0 | 0.00 | 0.55 | 0.03 | 33 | 1011.3 |
| 20260504182407 | 80 | 194 | 0.0 | 0.0 | 0.00 | 0.55 | 0.03 | 33 | 1011.3 |
| 20260504181908 | 80 | 201 | 3.0 | 2.0 | 0.00 | 0.55 | 0.03 | 33 | 1011.3 |
| 20260504181455 | 80 | 271 | 1.0 | 3.0 | 0.00 | 0.55 | 0.03 | 33 | 1011.3 |
| 20260504181408 | 80 | 271 | 1.0 | 3.0 | 0.00 | 0.55 | 0.03 | 33 | 1011.3 |
| 20260504180904 | 80 | 204 | 3.0 | 3.0 | 0.00 | 0.55 | 0.03 | 32 | 1011.4 |
| 20260504180446 | 80 | 158 | 0.0 | 3.0 | 0.00 | 0.55 | 0.03 | 33 | 1011.4 |
| 20260504180405 | 80 | 158 | 0.0 | 3.0 | 0.00 | 0.55 | 0.03 | 33 | 1011.4 |
| 20260504175402 | 79 | 329 | 1.0 | 1.0 | 0.00 | 0.55 | 0.03 | 34 | 1011.5 |
| 20260504175326 | 79 | 277 | 0.0 | 0.0 | 0.01 | 0.55 | 0.03 | 34 | 1011.8 |
| 20260504174902 | 79 | 359 | 1.0 | 0.0 | 0.01 | 0.55 | 0.03 | 34 | 1011.7 |
| 20260504174510 | 79 | 287 | 1.0 | 1.0 | 0.01 | 0.55 | 0.03 | 34 | 1011.7 |
| 20260504174403 | 79 | 287 | 1.0 | 1.0 | 0.01 | 0.55 | 0.03 | 34 | 1011.7 |
| 20260504173436 | 79 | 235 | 3.0 | 3.0 | 0.01 | 0.55 | 0.03 | 34 | 1011.9 |
| 20260504173400 | 79 | 235 | 3.0 | 3.0 | 0.01 | 0.55 | 0.03 | 34 | 1011.9 |
| 20260504172900 | 79 | 277 | 0.0 | 0.0 | 0.01 | 0.55 | 0.03 | 34 | 1011.8 |
| 20260504172357 | 79 | 302 | 0.0 | 3.0 | 0.01 | 0.55 | 0.03 | 35 | 1011.9 |
| 20260504172126 | 77 | 190 | 1.0 | 2.0 | 0.01 | 0.55 | 0.03 | 36 | 1012.2 |
| 20260504172118 | 77 | 215 | 0.0 | 5.0 | 0.01 | 0.55 | 0.03 | 37 | 1012.2 |
| 20260504171858 | 79 | 218 | 0.0 | 2.0 | 0.01 | 0.55 | 0.03 | 35 | 1012.0 |
| 20260504171359 | 78 | 203 | 0.0 | 0.0 | 0.01 | 0.55 | 0.03 | 36 | 1012.1 |
| 20260504170855 | 78 | 297 | 0.0 | 0.0 | 0.01 | 0.55 | 0.03 | 36 | 1012.1 |
| 20260504170441 | 78 | 203 | 1.0 | 0.0 | 0.01 | 0.55 | 0.03 | 36 | 1012.2 |
| 20260504170356 | 78 | 203 | 1.0 | 0.0 | 0.01 | 0.55 | 0.03 | 36 | 1012.2 |
| 20260504160349 | 74 | 162 | 0.0 | 0.0 | 0.00 | 0.55 | 0.02 | 41 | 1012.8 |
| 20260504150915 | 68 | 225 | 1.0 | 1.0 | 0.00 | 0.55 | 0.02 | 48 | 1013.2 |
| 20260504150913 | 68 | 212 | 3.0 | 2.0 | 0.00 | 0.55 | 0.02 | 49 | 1013.3 |
| 20260504150842 | 68 | 225 | 1.0 | 1.0 | 0.00 | 0.55 | 0.02 | 48 | 1013.2 |
| 20260504150735 | 68 | 212 | 3.0 | 2.0 | 0.00 | 0.55 | 0.02 | 49 | 1013.3 |
| 20260504150343 | 68 | 212 | 3.0 | 2.0 | 0.00 | 0.55 | 0.02 | 49 | 1013.3 |
| 20260504140939 | 66 | 336 | 2.0 | 0.0 | 0.01 | 0.55 | 0.02 | 49 | 1013.6 |
| 20260504140913 | 63 | 233 | 4.0 | 2.0 | 0.00 | 0.55 | 0.02 | 54 | 1013.9 |
| 20260504140837 | 66 | 336 | 2.0 | 0.0 | 0.01 | 0.55 | 0.02 | 49 | 1013.6 |
| 20260504140338 | 65 | 204 | 2.0 | 0.0 | 0.01 | 0.55 | 0.02 | 50 | 1013.6 |
| 20260504130525 | 60 | 83 | 2.0 | 0.0 | 0.00 | 0.55 | 0.01 | 61 | 1014.3 |
| 20260504130518 | 60 | 231 | 1.0 | 3.0 | 0.00 | 0.55 | 0.01 | 62 | 1014.4 |
| 20260504130508 | 60 | 277 | 1.0 | 0.0 | 0.00 | 0.55 | 0.01 | 63 | 1014.4 |
| 20260504130334 | 61 | 201 | 2.0 | 3.0 | 0.00 | 0.55 | 0.01 | 59 | 1014.1 |
| 20260504120308 | 60 | 287 | 3.0 | 2.0 | 0.00 | 0.55 | 0.01 | 65 | 1014.6 |
| 20260504120123 | 61 | 284 | 3.0 | 7.0 | 0.00 | 0.55 | 0.01 | 64 | 1014.8 |
| 20260504120119 | 61 | 188 | 1.0 | 1.0 | 0.00 | 0.55 | 0.01 | 65 | 1014.8 |
| 20260504120114 | 61 | 294 | 2.0 | 3.0 | 0.00 | 0.55 | 0.01 | 64 | 1014.8 |
| 20260504110349 | 55 | 243 | 2.0 | 2.0 | 0.00 | 0.55 | 0.01 | 73 | 1015.1 |
| 20260504110303 | 55 | 243 | 2.0 | 2.0 | 0.00 | 0.55 | 0.01 | 73 | 1015.1 |
| 20260504100300 | 48 | 217 | 1.0 | 1.0 | 0.00 | 0.55 | 0.01 | 77 | 1014.8 |
| 20260504081748 | 49 | 283 | 2.0 | 1.0 | 0.00 | 0.55 | 0.01 | 71 | 1014.8 |
| 20260504081711 | 49 | 311 | 0.0 | 1.0 | 0.00 | 0.55 | 0.01 | 71 | 1014.7 |
| 20260504081707 | 49 | 153 | 1.0 | 1.0 | 0.00 | 0.55 | 0.01 | 70 | 1014.6 |
| 20260504081250 | 49 | 311 | 0.0 | 1.0 | 0.00 | 0.55 | 0.01 | 71 | 1014.7 |
| 20260504080746 | 49 | 153 | 1.0 | 1.0 | 0.00 | 0.55 | 0.01 | 70 | 1014.6 |
| 20260504080240 | 49 | 229 | 1.0 | 2.0 | 0.00 | 0.55 | 0.01 | 70 | 1014.5 |
| 20260504080236 | 49 | 219 | 1.0 | 0.0 | 0.00 | 0.55 | 0.01 | 69 | 1014.5 |
| 20260504070333 | 49 | 197 | 0.0 | 0.0 | 0.01 | 0.55 | 0.01 | 67 | 1014.1 |
| 20260504070230 | 49 | 197 | 0.0 | 0.0 | 0.01 | 0.55 | 0.01 | 67 | 1014.1 |
| 20260504060226 | 50 | 264 | 0.0 | 0.0 | 0.00 | 0.55 | 0.01 | 63 | 1014.1 |
| 20260504050510 | 51 | 262 | 0.0 | 0.0 | 0.15 | 0.04 | 0.55 | 59 | 1013.8 |
| 20260504050501 | 51 | 260 | 0.0 | 0.0 | 0.15 | 0.04 | 0.55 | 59 | 1013.7 |
| 20260504050222 | 51 | 180 | 1.0 | 0.0 | 0.00 | 0.55 | 0.00 | 60 | 1014.0 |
| 20260504045723 | 51 | 183 | 0.0 | 0.0 | 0.00 | 0.55 | 0.00 | 60 | 1014.0 |
| 20260504045555 | 51 | 183 | 0.0 | 0.0 | 0.00 | 0.55 | 0.00 | 60 | 1013.9 |
| 20260504045220 | 51 | 183 | 0.0 | 0.0 | 0.00 | 0.55 | 0.00 | 60 | 1013.9 |
| 20260504044756 | 51 | 262 | 0.0 | 0.0 | 0.15 | 0.04 | 0.55 | 59 | 1013.9 |
| 20260504044721 | 51 | 262 | 0.0 | 0.0 | 0.15 | 0.04 | 0.55 | 59 | 1013.9 |
| 20260504044321 | 51 | 262 | 0.0 | 0.0 | 0.15 | 0.04 | 0.55 | 59 | 1013.8 |
| 20260504044222 | 51 | 262 | 0.0 | 0.0 | 0.15 | 0.04 | 0.55 | 59 | 1013.8 |
| 20260504043719 | 51 | 260 | 0.0 | 0.0 | 0.15 | 0.04 | 0.55 | 59 | 1013.7 |
| 20260504043619 | 51 | 280 | 0.0 | 0.0 | 0.15 | 0.04 | 0.55 | 58 | 1013.7 |
| 20260504043220 | 51 | 280 | 0.0 | 0.0 | 0.15 | 0.04 | 0.55 | 58 | 1013.7 |
| 20260504042722 | 51 | 280 | 0.0 | 0.0 | 0.15 | 0.04 | 0.55 | 58 | 1013.7 |
| 20260504042219 | 51 | 238 | 0.0 | 0.0 | 0.15 | 0.04 | 0.55 | 58 | 1013.8 |
| 20260504041720 | 52 | 238 | 0.0 | 1.0 | 0.15 | 0.04 | 0.55 | 58 | 1013.7 |
| 20260504041221 | 52 | 198 | 0.0 | 0.0 | 0.15 | 0.04 | 0.55 | 58 | 1013.7 |
| 20260504040718 | 52 | 195 | 0.0 | 0.0 | 0.15 | 0.04 | 0.55 | 57 | 1013.6 |
| 20260504040219 | 52 | 195 | 0.0 | 0.0 | 0.15 | 0.04 | 0.55 | 57 | 1013.5 |
| 20260504040109 | 52 | 270 | 0.0 | 0.0 | 0.07 | 0.04 | 0.50 | 56 | 1013.4 |